This is the latest recevied weather packets stored in our database for station/object JH1CWL-13. If no packets are shown the sender has not sent any weather packets the latest 10 day(s).
| Time | Temp. | Humidity | Pressure | Rain* | Wind** | Luminosity | Snow |
|---|---|---|---|---|---|---|---|
| 1777756526 | 17.78° C | 60% | 1009.4 hPa | 0 mm | - | - | - |
| 1777755324 | 17.22° C | 59% | 1009.2 hPa | 0 mm | - | - | - |
| 1777754125 | 17.22° C | 60% | 1008.8 hPa | 0 mm | - | - | - |
| 1777752925 | 17.22° C | 57% | 1008.9 hPa | 0 mm | - | - | - |
| 1777751725 | 17.22° C | 54% | 1008.8 hPa | 0 mm | - | - | - |
| 1777750526 | 17.78° C | 52% | 1008.6 hPa | 0 mm | - | - | - |
| 1777749324 | 17.78° C | 57% | 1008.7 hPa | 0 mm | - | - | - |
| 1777748124 | 15.56° C | 75% | 1008.5 hPa | 0 mm | - | - | - |
| 1777746924 | 14.44° C | 79% | 1008.6 hPa | 0 mm | - | - | - |
| 1777745725 | 15° C | 77% | 1008.7 hPa | 0 mm | - | - | - |
| 1777744524 | 15.56° C | 73% | 1008.4 hPa | 0 mm | - | - | - |
| 1777743324 | 16.67° C | 69% | 1008.8 hPa | 0 mm | - | - | - |
| 1777742126 | 16.11° C | 70% | 1008.8 hPa | 0 mm | - | - | - |
| 1777740924 | 15.56° C | 78% | 1008.8 hPa | 0 mm | - | - | - |
| 1777739725 | 13.89° C | 85% | 1008.6 hPa | 0 mm | - | - | - |
| 1777738524 | 13.33° C | 84% | 1008.7 hPa | 0 mm | - | - | - |
| 1777737325 | 13.33° C | 84% | 1009 hPa | 0 mm | - | - | - |
| 1777736125 | 12.78° C | 83% | 1009.1 hPa | 0 mm | - | - | - |
| 1777734924 | 12.78° C | 82% | 1009 hPa | 0 mm | - | - | - |
| 1777733725 | 12.78° C | 82% | 1009.1 hPa | 0 mm | - | - | - |
| 1777732525 | 13.33° C | 82% | 1009.2 hPa | 0 mm | - | - | - |
| 1777731325 | 13.89° C | 82% | 1009.1 hPa | 0 mm | - | - | - |
| 1777730125 | 14.44° C | 81% | 1009.3 hPa | 0 mm | - | - | - |
| 1777728925 | 14.44° C | 80% | 1009.4 hPa | 0 mm | - | - | - |
| 1777727726 | 14.44° C | 80% | 1009.4 hPa | 0 mm | - | - | - |
* Rain latest hour (hover to see other rain measurements)
** Current wind speed in m/s (hover to see current wind gust speed)